sensor_id;sensor_type;location;lat;lon;timestamp;temperature;humidity
1347;DHT22;667;48.796;9.480;2023-08-07T00:00:11;15.50;80.50
1347;DHT22;667;48.796;9.480;2023-08-07T00:02:38;15.50;80.00
1347;DHT22;667;48.796;9.480;2023-08-07T00:05:04;15.50;80.10
1347;DHT22;667;48.796;9.480;2023-08-07T00:07:30;15.60;80.00
1347;DHT22;667;48.796;9.480;2023-08-07T00:09:55;15.60;79.50
1347;DHT22;667;48.796;9.480;2023-08-07T00:12:21;15.60;79.30
1347;DHT22;667;48.796;9.480;2023-08-07T00:14:53;15.60;78.90
1347;DHT22;667;48.796;9.480;2023-08-07T00:17:18;15.50;78.70
1347;DHT22;667;48.796;9.480;2023-08-07T00:19:44;15.50;78.80
1347;DHT22;667;48.796;9.480;2023-08-07T00:22:09;15.50;78.40
1347;DHT22;667;48.796;9.480;2023-08-07T00:24:35;15.50;78.60
1347;DHT22;667;48.796;9.480;2023-08-07T00:27:01;15.50;79.30
1347;DHT22;667;48.796;9.480;2023-08-07T00:29:26;15.60;79.10
1347;DHT22;667;48.796;9.480;2023-08-07T00:31:52;15.60;77.90
1347;DHT22;667;48.796;9.480;2023-08-07T00:34:17;15.60;78.30
1347;DHT22;667;48.796;9.480;2023-08-07T00:36:43;15.60;78.10
1347;DHT22;667;48.796;9.480;2023-08-07T00:39:09;15.60;78.60
1347;DHT22;667;48.796;9.480;2023-08-07T00:41:34;15.60;77.90
1347;DHT22;667;48.796;9.480;2023-08-07T00:44:00;15.60;77.90
1347;DHT22;667;48.796;9.480;2023-08-07T00:46:27;15.60;77.50
1347;DHT22;667;48.796;9.480;2023-08-07T00:48:53;15.60;77.10
1347;DHT22;667;48.796;9.480;2023-08-07T00:51:19;15.60;77.50
1347;DHT22;667;48.796;9.480;2023-08-07T00:53:45;15.60;77.30
1347;DHT22;667;48.796;9.480;2023-08-07T00:56:12;15.60;77.20
1347;DHT22;667;48.796;9.480;2023-08-07T00:58:38;15.70;77.50
1347;DHT22;667;48.796;9.480;2023-08-07T01:01:05;15.70;77.50
1347;DHT22;667;48.796;9.480;2023-08-07T01:03:30;15.70;76.20
1347;DHT22;667;48.796;9.480;2023-08-07T01:05:56;15.70;76.20
1347;DHT22;667;48.796;9.480;2023-08-07T01:08:23;15.70;76.40
1347;DHT22;667;48.796;9.480;2023-08-07T01:11:11;15.70;76.20
1347;DHT22;667;48.796;9.480;2023-08-07T01:16:41;15.70;75.60
1347;DHT22;667;48.796;9.480;2023-08-07T01:19:19;15.70;74.60
1347;DHT22;667;48.796;9.480;2023-08-07T01:21:48;15.60;74.50
1347;DHT22;667;48.796;9.480;2023-08-07T01:24:14;15.60;74.20
1347;DHT22;667;48.796;9.480;2023-08-07T01:26:41;15.60;74.60
1347;DHT22;667;48.796;9.480;2023-08-07T01:29:32;15.60;74.50
1347;DHT22;667;48.796;9.480;2023-08-07T01:32:00;15.70;74.00
1347;DHT22;667;48.796;9.480;2023-08-07T01:34:27;15.60;73.90
1347;DHT22;667;48.796;9.480;2023-08-07T01:36:54;15.70;73.70
1347;DHT22;667;48.796;9.480;2023-08-07T01:39:22;15.70;73.60
1347;DHT22;667;48.796;9.480;2023-08-07T01:41:49;15.70;73.80
1347;DHT22;667;48.796;9.480;2023-08-07T01:44:16;15.70;73.80
1347;DHT22;667;48.796;9.480;2023-08-07T01:46:41;15.70;73.80
1347;DHT22;667;48.796;9.480;2023-08-07T01:49:07;15.70;73.60
1347;DHT22;667;48.796;9.480;2023-08-07T01:51:32;15.70;73.50
1347;DHT22;667;48.796;9.480;2023-08-07T01:53:58;15.70;72.80
1347;DHT22;667;48.796;9.480;2023-08-07T01:56:23;15.70;72.50
1347;DHT22;667;48.796;9.480;2023-08-07T01:58:49;15.70;72.10
1347;DHT22;667;48.796;9.480;2023-08-07T02:01:14;15.70;72.00
1347;DHT22;667;48.796;9.480;2023-08-07T02:03:40;15.70;72.10
1347;DHT22;667;48.796;9.480;2023-08-07T02:06:05;15.70;71.70
1347;DHT22;667;48.796;9.480;2023-08-07T02:08:31;15.70;72.00
1347;DHT22;667;48.796;9.480;2023-08-07T02:10:57;15.70;72.00
1347;DHT22;667;48.796;9.480;2023-08-07T02:13:22;15.70;71.80
1347;DHT22;667;48.796;9.480;2023-08-07T02:15:48;15.70;71.60
1347;DHT22;667;48.796;9.480;2023-08-07T02:18:13;15.70;71.10
1347;DHT22;667;48.796;9.480;2023-08-07T02:20:39;15.70;71.00
1347;DHT22;667;48.796;9.480;2023-08-07T02:23:04;15.70;70.50
1347;DHT22;667;48.796;9.480;2023-08-07T02:25:30;15.70;70.50
1347;DHT22;667;48.796;9.480;2023-08-07T02:27:56;15.70;70.30
1347;DHT22;667;48.796;9.480;2023-08-07T02:30:21;15.70;70.40
1347;DHT22;667;48.796;9.480;2023-08-07T02:32:47;15.60;70.50
1347;DHT22;667;48.796;9.480;2023-08-07T02:35:12;15.70;70.40
1347;DHT22;667;48.796;9.480;2023-08-07T02:37:38;15.70;70.20
1347;DHT22;667;48.796;9.480;2023-08-07T02:40:04;15.70;69.90
1347;DHT22;667;48.796;9.480;2023-08-07T02:42:29;15.70;70.20
1347;DHT22;667;48.796;9.480;2023-08-07T02:44:55;15.70;70.20
1347;DHT22;667;48.796;9.480;2023-08-07T02:47:21;15.70;69.60
1347;DHT22;667;48.796;9.480;2023-08-07T02:49:46;15.70;70.40
1347;DHT22;667;48.796;9.480;2023-08-07T02:52:12;15.70;71.00
1347;DHT22;667;48.796;9.480;2023-08-07T02:54:37;15.70;71.40
1347;DHT22;667;48.796;9.480;2023-08-07T02:57:03;15.70;71.10
1347;DHT22;667;48.796;9.480;2023-08-07T02:59:29;15.70;71.00
1347;DHT22;667;48.796;9.480;2023-08-07T03:01:54;15.70;70.50
1347;DHT22;667;48.796;9.480;2023-08-07T03:04:20;15.60;70.80
1347;DHT22;667;48.796;9.480;2023-08-07T03:06:45;15.60;70.40
1347;DHT22;667;48.796;9.480;2023-08-07T03:09:11;15.60;70.40
1347;DHT22;667;48.796;9.480;2023-08-07T03:11:36;15.60;70.00
1347;DHT22;667;48.796;9.480;2023-08-07T03:14:02;15.60;70.20
1347;DHT22;667;48.796;9.480;2023-08-07T03:16:28;15.60;70.10
1347;DHT22;667;48.796;9.480;2023-08-07T03:18:54;15.60;69.60
1347;DHT22;667;48.796;9.480;2023-08-07T03:21:19;15.60;69.70
1347;DHT22;667;48.796;9.480;2023-08-07T03:23:45;15.60;69.70
1347;DHT22;667;48.796;9.480;2023-08-07T03:26:11;15.60;68.60
1347;DHT22;667;48.796;9.480;2023-08-07T03:28:38;15.60;68.60
1347;DHT22;667;48.796;9.480;2023-08-07T03:31:05;15.60;69.20
1347;DHT22;667;48.796;9.480;2023-08-07T03:33:30;15.60;69.20
1347;DHT22;667;48.796;9.480;2023-08-07T03:35:56;15.60;69.30
1347;DHT22;667;48.796;9.480;2023-08-07T03:38:22;15.60;70.00
1347;DHT22;667;48.796;9.480;2023-08-07T03:40:47;15.60;69.10
1347;DHT22;667;48.796;9.480;2023-08-07T03:43:13;15.60;68.90
1347;DHT22;667;48.796;9.480;2023-08-07T03:45:39;15.60;68.70
1347;DHT22;667;48.796;9.480;2023-08-07T03:48:05;15.60;68.40
1347;DHT22;667;48.796;9.480;2023-08-07T03:50:30;15.60;68.50
1347;DHT22;667;48.796;9.480;2023-08-07T03:52:59;15.60;68.40
1347;DHT22;667;48.796;9.480;2023-08-07T03:55:25;15.60;68.30
1347;DHT22;667;48.796;9.480;2023-08-07T03:57:50;15.60;68.50
1347;DHT22;667;48.796;9.480;2023-08-07T04:00:16;15.60;68.40
1347;DHT22;667;48.796;9.480;2023-08-07T04:02:41;15.60;68.50
1347;DHT22;667;48.796;9.480;2023-08-07T04:05:07;15.60;68.40
1347;DHT22;667;48.796;9.480;2023-08-07T04:07:33;15.60;68.40
1347;DHT22;667;48.796;9.480;2023-08-07T04:09:58;15.60;68.10
1347;DHT22;667;48.796;9.480;2023-08-07T04:12:24;15.60;68.20
1347;DHT22;667;48.796;9.480;2023-08-07T04:14:49;15.60;68.20
1347;DHT22;667;48.796;9.480;2023-08-07T04:17:15;15.60;68.20
1347;DHT22;667;48.796;9.480;2023-08-07T04:19:41;15.60;68.20
1347;DHT22;667;48.796;9.480;2023-08-07T04:22:06;15.70;68.60
1347;DHT22;667;48.796;9.480;2023-08-07T04:24:32;15.70;68.40
1347;DHT22;667;48.796;9.480;2023-08-07T04:26:58;15.70;68.40
1347;DHT22;667;48.796;9.480;2023-08-07T04:29:24;15.70;68.10
1347;DHT22;667;48.796;9.480;2023-08-07T04:31:50;15.70;68.30
1347;DHT22;667;48.796;9.480;2023-08-07T04:34:15;15.70;69.10
1347;DHT22;667;48.796;9.480;2023-08-07T04:36:41;15.70;68.20
1347;DHT22;667;48.796;9.480;2023-08-07T04:39:06;15.70;68.40
1347;DHT22;667;48.796;9.480;2023-08-07T04:41:32;15.70;69.20
1347;DHT22;667;48.796;9.480;2023-08-07T04:43:58;15.80;68.20
1347;DHT22;667;48.796;9.480;2023-08-07T04:46:23;15.70;68.20
1347;DHT22;667;48.796;9.480;2023-08-07T04:48:49;15.80;68.80
1347;DHT22;667;48.796;9.480;2023-08-07T04:51:14;15.80;68.40
1347;DHT22;667;48.796;9.480;2023-08-07T04:53:41;15.80;68.00
1347;DHT22;667;48.796;9.480;2023-08-07T04:56:06;15.80;68.20
1347;DHT22;667;48.796;9.480;2023-08-07T04:58:32;15.80;68.60
1347;DHT22;667;48.796;9.480;2023-08-07T05:00:58;15.80;68.70
1347;DHT22;667;48.796;9.480;2023-08-07T05:03:24;15.80;68.50
1347;DHT22;667;48.796;9.480;2023-08-07T05:05:50;15.80;68.60
1347;DHT22;667;48.796;9.480;2023-08-07T05:08:16;15.80;68.80
1347;DHT22;667;48.796;9.480;2023-08-07T05:10:42;15.80;68.70
1347;DHT22;667;48.796;9.480;2023-08-07T05:13:08;15.80;69.00
1347;DHT22;667;48.796;9.480;2023-08-07T05:15:33;15.80;69.00
1347;DHT22;667;48.796;9.480;2023-08-07T05:17:59;15.80;68.90
1347;DHT22;667;48.796;9.480;2023-08-07T05:20:25;15.80;68.90
1347;DHT22;667;48.796;9.480;2023-08-07T05:22:51;15.80;69.30
1347;DHT22;667;48.796;9.480;2023-08-07T05:25:16;15.80;68.50
1347;DHT22;667;48.796;9.480;2023-08-07T05:27:43;15.80;69.30
1347;DHT22;667;48.796;9.480;2023-08-07T05:30:09;15.80;69.50
1347;DHT22;667;48.796;9.480;2023-08-07T05:32:35;15.80;69.50
1347;DHT22;667;48.796;9.480;2023-08-07T05:35:07;15.80;70.00
1347;DHT22;667;48.796;9.480;2023-08-07T05:37:33;15.80;69.60
1347;DHT22;667;48.796;9.480;2023-08-07T05:39:59;15.80;69.60
1347;DHT22;667;48.796;9.480;2023-08-07T05:42:25;15.80;69.30
1347;DHT22;667;48.796;9.480;2023-08-07T05:44:51;15.80;68.90
1347;DHT22;667;48.796;9.480;2023-08-07T05:47:16;15.80;69.10
1347;DHT22;667;48.796;9.480;2023-08-07T05:49:42;15.80;69.20
1347;DHT22;667;48.796;9.480;2023-08-07T05:52:08;15.80;69.30
1347;DHT22;667;48.796;9.480;2023-08-07T05:54:33;15.80;69.20
1347;DHT22;667;48.796;9.480;2023-08-07T05:56:59;15.80;69.20
1347;DHT22;667;48.796;9.480;2023-08-07T05:59:25;15.80;69.40
1347;DHT22;667;48.796;9.480;2023-08-07T06:01:51;15.90;69.20
1347;DHT22;667;48.796;9.480;2023-08-07T06:04:17;15.90;69.60
1347;DHT22;667;48.796;9.480;2023-08-07T06:06:42;15.90;69.80
1347;DHT22;667;48.796;9.480;2023-08-07T06:09:09;15.90;69.80
1347;DHT22;667;48.796;9.480;2023-08-07T06:11:35;16.00;69.90
1347;DHT22;667;48.796;9.480;2023-08-07T06:14:01;16.00;69.50
1347;DHT22;667;48.796;9.480;2023-08-07T06:16:27;16.10;69.40
1347;DHT22;667;48.796;9.480;2023-08-07T06:18:53;16.10;69.50
1347;DHT22;667;48.796;9.480;2023-08-07T06:21:18;16.20;69.60
1347;DHT22;667;48.796;9.480;2023-08-07T06:23:45;16.20;69.40
1347;DHT22;667;48.796;9.480;2023-08-07T06:26:11;16.20;69.00
1347;DHT22;667;48.796;9.480;2023-08-07T06:28:36;16.20;68.50
1347;DHT22;667;48.796;9.480;2023-08-07T06:31:03;16.30;68.80
1347;DHT22;667;48.796;9.480;2023-08-07T06:33:29;16.30;69.00
1347;DHT22;667;48.796;9.480;2023-08-07T06:35:55;16.30;69.20
1347;DHT22;667;48.796;9.480;2023-08-07T06:38:21;16.40;69.20
1347;DHT22;667;48.796;9.480;2023-08-07T06:40:46;16.40;68.40
1347;DHT22;667;48.796;9.480;2023-08-07T06:43:12;16.40;67.80
1347;DHT22;667;48.796;9.480;2023-08-07T06:45:37;16.40;67.60
1347;DHT22;667;48.796;9.480;2023-08-07T06:48:03;16.40;67.80
1347;DHT22;667;48.796;9.480;2023-08-07T06:50:28;16.40;68.10
1347;DHT22;667;48.796;9.480;2023-08-07T06:52:54;16.50;68.40
1347;DHT22;667;48.796;9.480;2023-08-07T06:55:20;16.60;68.30
1347;DHT22;667;48.796;9.480;2023-08-07T06:57:46;16.60;68.40
1347;DHT22;667;48.796;9.480;2023-08-07T07:00:12;16.70;68.00
1347;DHT22;667;48.796;9.480;2023-08-07T07:02:37;16.70;67.10
1347;DHT22;667;48.796;9.480;2023-08-07T07:05:04;16.80;67.60
1347;DHT22;667;48.796;9.480;2023-08-07T07:07:30;16.90;67.90
1347;DHT22;667;48.796;9.480;2023-08-07T07:09:56;17.00;67.30
1347;DHT22;667;48.796;9.480;2023-08-07T07:12:23;17.00;66.30
1347;DHT22;667;48.796;9.480;2023-08-07T07:14:49;17.10;66.00
1347;DHT22;667;48.796;9.480;2023-08-07T07:17:14;17.20;65.60
1347;DHT22;667;48.796;9.480;2023-08-07T07:19:40;17.20;64.80
1347;DHT22;667;48.796;9.480;2023-08-07T07:22:05;17.20;64.10
1347;DHT22;667;48.796;9.480;2023-08-07T07:24:31;17.20;63.90
1347;DHT22;667;48.796;9.480;2023-08-07T07:26:56;17.20;64.50
1347;DHT22;667;48.796;9.480;2023-08-07T07:29:22;17.30;64.00
1347;DHT22;667;48.796;9.480;2023-08-07T07:31:50;17.30;64.20
1347;DHT22;667;48.796;9.480;2023-08-07T07:34:15;17.30;63.20
1347;DHT22;667;48.796;9.480;2023-08-07T07:36:41;17.40;63.00
1347;DHT22;667;48.796;9.480;2023-08-07T07:39:06;17.40;62.70
1347;DHT22;667;48.796;9.480;2023-08-07T07:41:32;17.50;62.40
1347;DHT22;667;48.796;9.480;2023-08-07T07:43:58;17.50;62.00
1347;DHT22;667;48.796;9.480;2023-08-07T07:46:23;17.60;61.80
1347;DHT22;667;48.796;9.480;2023-08-07T07:48:49;17.60;61.60
1347;DHT22;667;48.796;9.480;2023-08-07T07:51:15;17.70;62.00
1347;DHT22;667;48.796;9.480;2023-08-07T07:53:40;17.70;62.10
1347;DHT22;667;48.796;9.480;2023-08-07T07:56:06;17.70;61.40
1347;DHT22;667;48.796;9.480;2023-08-07T07:58:32;17.70;61.40
1347;DHT22;667;48.796;9.480;2023-08-07T08:00:57;17.70;61.40
1347;DHT22;667;48.796;9.480;2023-08-07T08:03:23;17.70;61.10
1347;DHT22;667;48.796;9.480;2023-08-07T08:05:50;17.70;61.30
1347;DHT22;667;48.796;9.480;2023-08-07T08:08:16;17.60;62.10
1347;DHT22;667;48.796;9.480;2023-08-07T08:10:43;17.60;62.70
1347;DHT22;667;48.796;9.480;2023-08-07T08:13:09;17.60;63.10
1347;DHT22;667;48.796;9.480;2023-08-07T08:15:35;17.70;63.20
1347;DHT22;667;48.796;9.480;2023-08-07T08:18:01;17.60;62.90
1347;DHT22;667;48.796;9.480;2023-08-07T08:20:26;17.60;63.10
1347;DHT22;667;48.796;9.480;2023-08-07T08:22:52;17.60;62.60
1347;DHT22;667;48.796;9.480;2023-08-07T08:25:17;17.60;62.70
1347;DHT22;667;48.796;9.480;2023-08-07T08:27:43;17.60;63.00
1347;DHT22;667;48.796;9.480;2023-08-07T08:30:09;17.50;62.10
1347;DHT22;667;48.796;9.480;2023-08-07T08:32:35;17.60;61.30
1347;DHT22;667;48.796;9.480;2023-08-07T08:35:00;17.50;61.50
1347;DHT22;667;48.796;9.480;2023-08-07T08:37:26;17.50;61.80
1347;DHT22;667;48.796;9.480;2023-08-07T08:39:52;17.50;61.20
1347;DHT22;667;48.796;9.480;2023-08-07T08:42:18;17.60;60.80
1347;DHT22;667;48.796;9.480;2023-08-07T08:44:51;17.60;60.30
1347;DHT22;667;48.796;9.480;2023-08-07T08:47:17;17.60;60.60
1347;DHT22;667;48.796;9.480;2023-08-07T08:49:47;17.60;61.20
1347;DHT22;667;48.796;9.480;2023-08-07T08:52:13;17.60;61.50
1347;DHT22;667;48.796;9.480;2023-08-07T08:54:40;17.60;61.70
1347;DHT22;667;48.796;9.480;2023-08-07T08:57:06;17.60;61.70
1347;DHT22;667;48.796;9.480;2023-08-07T08:59:33;17.60;61.50
1347;DHT22;667;48.796;9.480;2023-08-07T09:01:59;17.70;61.60
1347;DHT22;667;48.796;9.480;2023-08-07T09:04:25;17.70;61.60
1347;DHT22;667;48.796;9.480;2023-08-07T09:06:51;17.70;61.20
1347;DHT22;667;48.796;9.480;2023-08-07T09:09:20;17.80;61.40
1347;DHT22;667;48.796;9.480;2023-08-07T09:11:47;17.80;61.70
1347;DHT22;667;48.796;9.480;2023-08-07T09:14:20;17.80;61.70
1347;DHT22;667;48.796;9.480;2023-08-07T09:16:48;18.00;61.40
1347;DHT22;667;48.796;9.480;2023-08-07T09:19:14;18.00;60.80
1347;DHT22;667;48.796;9.480;2023-08-07T09:21:39;18.10;60.00
1347;DHT22;667;48.796;9.480;2023-08-07T09:24:05;18.10;59.10
1347;DHT22;667;48.796;9.480;2023-08-07T09:26:32;18.20;59.20
1347;DHT22;667;48.796;9.480;2023-08-07T09:28:59;18.20;58.50
1347;DHT22;667;48.796;9.480;2023-08-07T09:31:26;18.20;58.20
1347;DHT22;667;48.796;9.480;2023-08-07T09:33:52;18.30;58.40
1347;DHT22;667;48.796;9.480;2023-08-07T09:36:18;18.40;58.40
1347;DHT22;667;48.796;9.480;2023-08-07T09:38:49;18.40;58.60
1347;DHT22;667;48.796;9.480;2023-08-07T09:41:18;18.50;58.40
1347;DHT22;667;48.796;9.480;2023-08-07T09:43:44;18.50;58.20
1347;DHT22;667;48.796;9.480;2023-08-07T09:46:10;18.50;58.10
1347;DHT22;667;48.796;9.480;2023-08-07T09:48:43;18.50;58.30
1347;DHT22;667;48.796;9.480;2023-08-07T09:51:09;18.60;57.80
1347;DHT22;667;48.796;9.480;2023-08-07T09:53:35;18.60;58.20
1347;DHT22;667;48.796;9.480;2023-08-07T09:56:01;18.60;57.70
1347;DHT22;667;48.796;9.480;2023-08-07T09:58:28;18.60;57.90
1347;DHT22;667;48.796;9.480;2023-08-07T10:00:54;18.70;57.40
1347;DHT22;667;48.796;9.480;2023-08-07T10:03:22;18.70;57.10
1347;DHT22;667;48.796;9.480;2023-08-07T10:05:48;18.70;56.90
1347;DHT22;667;48.796;9.480;2023-08-07T10:08:14;18.80;57.40
1347;DHT22;667;48.796;9.480;2023-08-07T10:10:40;18.80;57.30
1347;DHT22;667;48.796;9.480;2023-08-07T10:13:06;18.80;57.40
1347;DHT22;667;48.796;9.480;2023-08-07T10:15:32;18.80;57.60
1347;DHT22;667;48.796;9.480;2023-08-07T10:18:00;18.80;58.20
1347;DHT22;667;48.796;9.480;2023-08-07T10:20:27;18.90;58.40
1347;DHT22;667;48.796;9.480;2023-08-07T10:22:57;18.90;56.90
1347;DHT22;667;48.796;9.480;2023-08-07T10:25:26;19.00;56.80
1347;DHT22;667;48.796;9.480;2023-08-07T10:27:53;19.00;56.40
1347;DHT22;667;48.796;9.480;2023-08-07T10:30:22;19.10;56.70
1347;DHT22;667;48.796;9.480;2023-08-07T10:32:49;19.00;56.80
1347;DHT22;667;48.796;9.480;2023-08-07T10:35:25;19.10;57.70
1347;DHT22;667;48.796;9.480;2023-08-07T10:37:52;19.20;58.40
1347;DHT22;667;48.796;9.480;2023-08-07T10:40:20;19.30;57.00
1347;DHT22;667;48.796;9.480;2023-08-07T10:43:17;19.30;56.30
1347;DHT22;667;48.796;9.480;2023-08-07T10:45:43;19.40;55.80
1347;DHT22;667;48.796;9.480;2023-08-07T10:48:12;19.40;55.30
1347;DHT22;667;48.796;9.480;2023-08-07T10:50:56;19.30;54.90
1347;DHT22;667;48.796;9.480;2023-08-07T10:55:58;19.20;55.40
1347;DHT22;667;48.796;9.480;2023-08-07T10:58:34;19.20;55.70
1347;DHT22;667;48.796;9.480;2023-08-07T11:03:57;19.40;56.70
1347;DHT22;667;48.796;9.480;2023-08-07T11:06:30;19.40;56.00
1347;DHT22;667;48.796;9.480;2023-08-07T11:08:57;19.40;55.30
1347;DHT22;667;48.796;9.480;2023-08-07T11:11:23;19.40;55.60
1347;DHT22;667;48.796;9.480;2023-08-07T11:13:49;19.40;55.60
1347;DHT22;667;48.796;9.480;2023-08-07T11:16:17;19.40;56.20
1347;DHT22;667;48.796;9.480;2023-08-07T11:18:43;19.40;55.60
1347;DHT22;667;48.796;9.480;2023-08-07T11:21:09;19.40;55.60
1347;DHT22;667;48.796;9.480;2023-08-07T11:23:39;19.30;55.80
1347;DHT22;667;48.796;9.480;2023-08-07T11:26:06;19.30;55.30
1347;DHT22;667;48.796;9.480;2023-08-07T11:28:32;19.20;55.50
1347;DHT22;667;48.796;9.480;2023-08-07T11:30:58;19.20;55.80
1347;DHT22;667;48.796;9.480;2023-08-07T11:33:25;19.10;56.00
1347;DHT22;667;48.796;9.480;2023-08-07T11:35:51;19.00;55.10
1347;DHT22;667;48.796;9.480;2023-08-07T11:38:33;19.00;55.20
1347;DHT22;667;48.796;9.480;2023-08-07T11:41:03;18.90;55.60
1347;DHT22;667;48.796;9.480;2023-08-07T11:43:31;18.80;56.10
1347;DHT22;667;48.796;9.480;2023-08-07T11:45:58;18.80;56.20
1347;DHT22;667;48.796;9.480;2023-08-07T11:48:25;18.80;56.40
1347;DHT22;667;48.796;9.480;2023-08-07T11:50:52;18.70;56.60
1347;DHT22;667;48.796;9.480;2023-08-07T11:53:19;18.70;56.80
1347;DHT22;667;48.796;9.480;2023-08-07T11:56:06;18.70;56.90
1347;DHT22;667;48.796;9.480;2023-08-07T11:58:36;18.70;56.90
1347;DHT22;667;48.796;9.480;2023-08-07T12:01:09;18.80;57.10
1347;DHT22;667;48.796;9.480;2023-08-07T12:03:37;18.80;56.80
1347;DHT22;667;48.796;9.480;2023-08-07T12:06:07;18.80;56.90
1347;DHT22;667;48.796;9.480;2023-08-07T12:08:34;18.80;57.30
1347;DHT22;667;48.796;9.480;2023-08-07T12:11:04;18.90;57.70
1347;DHT22;667;48.796;9.480;2023-08-07T12:13:31;18.90;58.00
1347;DHT22;667;48.796;9.480;2023-08-07T12:15:58;19.00;57.70
1347;DHT22;667;48.796;9.480;2023-08-07T12:18:24;19.00;57.60
1347;DHT22;667;48.796;9.480;2023-08-07T12:20:58;18.90;57.40
1347;DHT22;667;48.796;9.480;2023-08-07T12:23:24;18.90;57.80
1347;DHT22;667;48.796;9.480;2023-08-07T12:25:50;18.90;58.20
1347;DHT22;667;48.796;9.480;2023-08-07T12:28:18;18.80;58.40
1347;DHT22;667;48.796;9.480;2023-08-07T12:30:47;18.80;58.90
1347;DHT22;667;48.796;9.480;2023-08-07T12:33:13;18.80;59.80
1347;DHT22;667;48.796;9.480;2023-08-07T12:35:40;18.90;61.20
1347;DHT22;667;48.796;9.480;2023-08-07T12:38:06;18.90;61.80
1347;DHT22;667;48.796;9.480;2023-08-07T12:40:32;19.00;61.80
1347;DHT22;667;48.796;9.480;2023-08-07T12:42:58;19.00;61.70
1347;DHT22;667;48.796;9.480;2023-08-07T12:45:24;19.10;61.40
1347;DHT22;667;48.796;9.480;2023-08-07T12:47:50;19.10;61.10
1347;DHT22;667;48.796;9.480;2023-08-07T12:50:15;19.20;61.50
1347;DHT22;667;48.796;9.480;2023-08-07T12:52:41;19.20;62.10
1347;DHT22;667;48.796;9.480;2023-08-07T12:55:07;19.30;60.10
1347;DHT22;667;48.796;9.480;2023-08-07T12:57:33;19.30;59.80
1347;DHT22;667;48.796;9.480;2023-08-07T12:59:59;19.40;59.90
1347;DHT22;667;48.796;9.480;2023-08-07T13:02:24;19.40;59.60
1347;DHT22;667;48.796;9.480;2023-08-07T13:04:50;19.40;59.50
1347;DHT22;667;48.796;9.480;2023-08-07T13:07:17;19.40;59.70
1347;DHT22;667;48.796;9.480;2023-08-07T13:09:43;19.40;59.70
1347;DHT22;667;48.796;9.480;2023-08-07T13:12:08;19.40;59.90
1347;DHT22;667;48.796;9.480;2023-08-07T13:14:34;19.40;60.80
1347;DHT22;667;48.796;9.480;2023-08-07T13:16:59;19.40;60.40
1347;DHT22;667;48.796;9.480;2023-08-07T13:19:26;19.30;59.90
1347;DHT22;667;48.796;9.480;2023-08-07T13:21:51;19.30;59.40
1347;DHT22;667;48.796;9.480;2023-08-07T13:24:17;19.30;59.50
1347;DHT22;667;48.796;9.480;2023-08-07T13:26:42;19.30;59.70
1347;DHT22;667;48.796;9.480;2023-08-07T13:29:11;19.20;60.00
1347;DHT22;667;48.796;9.480;2023-08-07T13:31:37;19.30;60.30
1347;DHT22;667;48.796;9.480;2023-08-07T13:34:02;19.30;60.20
1347;DHT22;667;48.796;9.480;2023-08-07T13:36:36;19.20;61.10
1347;DHT22;667;48.796;9.480;2023-08-07T13:39:02;19.20;62.10
1347;DHT22;667;48.796;9.480;2023-08-07T13:41:28;19.20;62.50
1347;DHT22;667;48.796;9.480;2023-08-07T13:43:54;19.20;63.20
1347;DHT22;667;48.796;9.480;2023-08-07T13:46:19;19.20;64.30
1347;DHT22;667;48.796;9.480;2023-08-07T13:48:45;19.20;65.30
1347;DHT22;667;48.796;9.480;2023-08-07T13:51:11;19.20;65.90
1347;DHT22;667;48.796;9.480;2023-08-07T13:53:37;19.20;66.50
1347;DHT22;667;48.796;9.480;2023-08-07T13:56:02;19.20;66.90
1347;DHT22;667;48.796;9.480;2023-08-07T13:58:28;19.20;67.40
1347;DHT22;667;48.796;9.480;2023-08-07T14:00:55;19.30;67.60
1347;DHT22;667;48.796;9.480;2023-08-07T14:03:21;19.30;68.60
1347;DHT22;667;48.796;9.480;2023-08-07T14:05:47;19.30;68.20
1347;DHT22;667;48.796;9.480;2023-08-07T14:08:13;19.40;67.90
1347;DHT22;667;48.796;9.480;2023-08-07T14:10:39;19.40;68.10
1347;DHT22;667;48.796;9.480;2023-08-07T14:13:06;19.40;67.70
1347;DHT22;667;48.796;9.480;2023-08-07T14:15:32;19.40;67.10
1347;DHT22;667;48.796;9.480;2023-08-07T14:17:57;19.30;67.80
1347;DHT22;667;48.796;9.480;2023-08-07T14:20:23;19.30;67.90
1347;DHT22;667;48.796;9.480;2023-08-07T14:22:50;19.40;67.60
1347;DHT22;667;48.796;9.480;2023-08-07T14:25:16;19.40;68.30
1347;DHT22;667;48.796;9.480;2023-08-07T14:27:41;19.40;68.70
1347;DHT22;667;48.796;9.480;2023-08-07T14:30:07;19.40;69.00
1347;DHT22;667;48.796;9.480;2023-08-07T14:32:33;19.40;68.40
1347;DHT22;667;48.796;9.480;2023-08-07T14:34:58;19.40;68.50
1347;DHT22;667;48.796;9.480;2023-08-07T14:37:24;19.40;68.40
1347;DHT22;667;48.796;9.480;2023-08-07T14:39:50;19.50;68.90
1347;DHT22;667;48.796;9.480;2023-08-07T14:42:15;19.50;69.00
1347;DHT22;667;48.796;9.480;2023-08-07T14:44:41;19.50;68.40
1347;DHT22;667;48.796;9.480;2023-08-07T14:47:07;19.60;66.70
1347;DHT22;667;48.796;9.480;2023-08-07T14:49:32;19.60;66.50
1347;DHT22;667;48.796;9.480;2023-08-07T14:51:58;19.60;66.50
1347;DHT22;667;48.796;9.480;2023-08-07T14:54:23;19.60;66.70
1347;DHT22;667;48.796;9.480;2023-08-07T14:56:49;19.50;67.00
1347;DHT22;667;48.796;9.480;2023-08-07T14:59:15;19.50;66.50
1347;DHT22;667;48.796;9.480;2023-08-07T15:01:40;19.50;66.30
1347;DHT22;667;48.796;9.480;2023-08-07T15:04:06;19.50;67.00
1347;DHT22;667;48.796;9.480;2023-08-07T15:06:32;19.50;67.60
1347;DHT22;667;48.796;9.480;2023-08-07T15:08:58;19.40;67.80
1347;DHT22;667;48.796;9.480;2023-08-07T15:11:23;19.40;68.10
1347;DHT22;667;48.796;9.480;2023-08-07T15:13:49;19.40;67.10
1347;DHT22;667;48.796;9.480;2023-08-07T15:16:15;19.40;66.70
1347;DHT22;667;48.796;9.480;2023-08-07T15:18:41;19.40;66.00
1347;DHT22;667;48.796;9.480;2023-08-07T15:21:06;19.40;64.60
1347;DHT22;667;48.796;9.480;2023-08-07T15:23:32;19.50;63.20
1347;DHT22;667;48.796;9.480;2023-08-07T15:25:58;19.60;62.10
1347;DHT22;667;48.796;9.480;2023-08-07T15:28:24;19.60;62.40
1347;DHT22;667;48.796;9.480;2023-08-07T15:30:50;19.60;61.20
1347;DHT22;667;48.796;9.480;2023-08-07T15:33:16;19.60;59.80
1347;DHT22;667;48.796;9.480;2023-08-07T15:35:43;19.60;58.00
1347;DHT22;667;48.796;9.480;2023-08-07T15:38:08;19.60;57.20
1347;DHT22;667;48.796;9.480;2023-08-07T15:40:40;19.60;57.10
1347;DHT22;667;48.796;9.480;2023-08-07T15:43:07;19.60;57.50
1347;DHT22;667;48.796;9.480;2023-08-07T15:45:33;19.50;57.70
1347;DHT22;667;48.796;9.480;2023-08-07T15:47:59;19.50;58.30
1347;DHT22;667;48.796;9.480;2023-08-07T15:50:24;19.50;58.60
1347;DHT22;667;48.796;9.480;2023-08-07T15:52:50;19.50;58.70
1347;DHT22;667;48.796;9.480;2023-08-07T15:55:15;19.50;58.50
1347;DHT22;667;48.796;9.480;2023-08-07T15:57:41;19.40;58.30
1347;DHT22;667;48.796;9.480;2023-08-07T16:00:07;19.40;58.50
1347;DHT22;667;48.796;9.480;2023-08-07T16:02:35;19.40;58.60
1347;DHT22;667;48.796;9.480;2023-08-07T16:05:01;19.50;58.20
1347;DHT22;667;48.796;9.480;2023-08-07T16:07:26;19.50;58.60
1347;DHT22;667;48.796;9.480;2023-08-07T16:09:54;19.60;58.30
1347;DHT22;667;48.796;9.480;2023-08-07T16:12:20;19.60;57.50
1347;DHT22;667;48.796;9.480;2023-08-07T16:14:45;19.70;57.10
1347;DHT22;667;48.796;9.480;2023-08-07T16:17:13;19.70;57.40
1347;DHT22;667;48.796;9.480;2023-08-07T16:19:39;19.80;57.60